Time;durP1;ratioP1;P1;durP2;ratioP2;P2;SDS_P1;SDS_P2;PMS_P1;PMS_P2;Temp;Humidity;BMP_temperature;BMP_pressure;BME280_temperature;BME280_humidity;BME280_pressure;Samples;Min_cycle;Max_cycle;Signal;HPM_P1;HPM_P2
2024/02/15 00:00:19;;;;;;;39.40;24.90;;;;;;;6.42;80.61;101563.63;105105;1257;71138;-59
2024/02/15 00:03:13;;;;;;;39.80;25.50;;;;;;;6.42;80.61;101563.98;105000;1255;137840;-58
2024/02/15 00:05:42;;;;;;;40.60;25.00;;;;;;;6.42;80.64;101564.02;104953;1258;60455;-60
2024/02/15 00:08:09;;;;;;;45.10;26.40;;;;;;;6.43;80.66;101562.81;104535;1257;73258;-58
2024/02/15 00:10:37;;;;;;;39.60;24.10;;;;;;;6.42;80.58;101560.31;108328;1257;138803;-58
2024/02/15 00:13:06;;;;;;;38.40;25.60;;;;;;;6.39;80.51;101555.98;108394;1258;72113;-59
2024/02/15 00:15:36;;;;;;;42.80;25.70;;;;;;;6.39;80.50;101553.52;108389;1255;138131;-59
2024/02/15 00:18:03;;;;;;;39.80;23.90;;;;;;;6.40;80.64;101556.54;105567;1257;60507;-58
2024/02/15 00:20:30;;;;;;;37.70;24.70;;;;;;;6.41;80.48;101555.19;105041;1255;74969;-58
2024/02/15 00:22:57;;;;;;;36.10;22.90;;;;;;;6.42;80.64;101549.50;104892;1258;138421;-60
2024/02/15 00:25:25;;;;;;;40.00;24.20;;;;;;;6.43;80.54;101550.44;104965;1258;72034;-59
2024/02/15 00:27:52;;;;;;;45.30;24.70;;;;;;;6.45;80.63;101547.91;105583;1257;138351;-59
2024/02/15 00:30:19;;;;;;;39.60;23.70;;;;;;;6.47;80.71;101546.64;104962;1260;60463;-60
2024/02/15 00:32:46;;;;;;;39.80;24.40;;;;;;;6.50;80.58;101545.89;104872;1259;139085;-60
2024/02/15 00:35:13;;;;;;;39.30;23.50;;;;;;;6.51;80.65;101547.04;104678;1262;65036;-58
2024/02/15 00:37:40;;;;;;;41.60;25.30;;;;;;;6.53;80.67;101546.98;104561;1259;73744;-60
2024/02/15 00:40:08;;;;;;;37.50;23.10;;;;;;;6.56;80.62;101544.83;104519;1258;138228;-60
2024/02/15 00:42:36;;;;;;;36.30;22.60;;;;;;;6.58;80.65;101542.17;108652;1256;61784;-58
2024/02/15 00:45:04;;;;;;;39.30;23.50;;;;;;;6.58;80.62;101541.50;104863;1257;137853;-60
2024/02/15 00:47:32;;;;;;;39.80;24.10;;;;;;;6.58;80.58;101543.90;108638;1256;65956;-59
2024/02/15 00:49:59;;;;;;;40.70;23.90;;;;;;;6.57;80.53;101538.30;108141;1255;71005;-59
2024/02/15 00:52:26;;;;;;;36.20;23.50;;;;;;;6.58;80.61;101538.31;104597;1259;139727;-58
2024/02/15 00:54:53;;;;;;;35.80;23.00;;;;;;;6.57;80.59;101535.51;104673;1257;60357;-59
2024/02/15 00:57:20;;;;;;;38.90;23.20;;;;;;;6.56;80.61;101536.69;104915;1257;138744;-58
2024/02/15 00:59:47;;;;;;;35.70;23.20;;;;;;;6.55;80.63;101533.80;104989;1258;66744;-59
2024/02/15 01:02:14;;;;;;;37.20;23.30;;;;;;;6.56;80.70;101530.55;104919;1259;72257;-59
2024/02/15 01:04:42;;;;;;;37.70;23.90;;;;;;;6.55;80.75;101533.44;104371;1257;138737;-60
2024/02/15 01:07:09;;;;;;;38.60;23.60;;;;;;;6.53;80.75;101533.18;105258;1259;60735;-60
2024/02/15 01:09:37;;;;;;;41.20;24.10;;;;;;;6.54;80.84;101531.28;104591;1257;138229;-58
2024/02/15 01:12:04;;;;;;;40.60;24.00;;;;;;;6.53;80.81;101534.06;104631;1259;66694;-65
2024/02/15 01:14:31;;;;;;;40.40;23.90;;;;;;;6.53;80.86;101535.45;105541;1260;72799;-66
2024/02/15 01:16:58;;;;;;;40.70;24.80;;;;;;;6.54;81.00;101535.00;104676;1255;138337;-66
2024/02/15 01:19:25;;;;;;;37.90;24.80;;;;;;;6.56;81.17;101534.24;104638;1255;61890;-66
2024/02/15 01:21:53;;;;;;;40.10;24.30;;;;;;;6.58;81.07;101535.36;106605;1255;138328;-67
2024/02/15 01:24:20;;;;;;;40.30;23.70;;;;;;;6.58;81.11;101535.20;104816;1258;65409;-66
2024/02/15 01:26:47;;;;;;;36.40;23.10;;;;;;;6.58;81.13;101531.73;104700;1258;138542;-65
2024/02/15 01:29:14;;;;;;;37.30;23.00;;;;;;;6.59;81.26;101527.55;105009;1257;60841;-65
2024/02/15 01:31:41;;;;;;;40.80;23.20;;;;;;;6.63;81.32;101527.27;105062;1257;60050;-66
2024/02/15 01:34:07;;;;;;;39.50;23.00;;;;;;;6.65;81.28;101523.16;104323;1260;138751;-66
2024/02/15 01:36:35;;;;;;;36.50;22.90;;;;;;;6.65;81.41;101520.92;104706;1259;69081;-59
2024/02/15 01:39:02;;;;;;;43.60;24.80;;;;;;;6.66;81.37;101520.95;104357;1260;137980;-58
2024/02/15 01:41:28;;;;;;;40.00;23.60;;;;;;;6.64;81.46;101513.89;104679;1260;60994;-58
2024/02/15 01:43:55;;;;;;;42.70;24.30;;;;;;;6.66;81.44;101513.45;105145;1259;61283;-59
2024/02/15 01:46:22;;;;;;;42.80;24.20;;;;;;;6.65;81.41;101510.98;104724;1259;137615;-59
2024/02/15 01:48:49;;;;;;;38.10;23.80;;;;;;;6.63;81.49;101511.24;104516;1260;64983;-59
2024/02/15 01:51:16;;;;;;;43.20;24.60;;;;;;;6.63;81.51;101510.00;106115;1257;138589;-59
2024/02/15 01:53:43;;;;;;;42.50;23.80;;;;;;;6.63;81.58;101505.98;104709;1259;60437;-57
2024/02/15 01:56:12;;;;;;;42.60;26.50;;;;;;;6.62;81.62;101505.94;104685;1257;60725;-58
2024/02/15 01:58:40;;;;;;;42.60;24.50;;;;;;;6.62;81.68;101503.66;105013;1257;138427;-60
2024/02/15 02:01:06;;;;;;;45.40;24.70;;;;;;;6.62;81.80;101500.02;104968;1256;65576;-58
2024/02/15 02:03:33;;;;;;;41.80;25.40;;;;;;;6.64;81.79;101500.95;104720;1257;138911;-59
2024/02/15 02:06:01;;;;;;;47.50;24.90;;;;;;;6.62;81.87;101498.77;104711;1258;61158;-60
2024/02/15 02:08:28;;;;;;;40.60;25.40;;;;;;;6.59;81.80;101499.13;104615;1269;61447;-59
2024/02/15 02:10:54;;;;;;;41.50;25.50;;;;;;;6.56;81.77;101503.52;104604;1259;138029;-58
2024/02/15 02:13:22;;;;;;;39.10;23.70;;;;;;;6.54;82.05;101502.89;104677;1261;67255;-59
2024/02/15 02:15:49;;;;;;;45.30;26.30;;;;;;;6.52;82.12;101500.54;105415;1256;138672;-59
2024/02/15 02:18:16;;;;;;;43.80;26.20;;;;;;;6.53;82.24;101503.02;106534;1256;61493;-59
2024/02/15 02:20:43;;;;;;;46.90;26.80;;;;;;;6.54;82.34;101496.81;104520;1256;139042;-58
2024/02/15 02:23:13;;;;;;;45.80;27.00;;;;;;;6.55;82.48;101497.52;104705;1257;73321;-59
2024/02/15 02:25:42;;;;;;;47.90;26.70;;;;;;;6.56;82.39;101498.63;108654;1255;66804;-58
2024/02/15 02:28:09;;;;;;;44.20;26.00;;;;;;;6.56;82.54;101495.48;106883;1257;138511;-59
2024/02/15 02:30:35;;;;;;;43.10;26.70;;;;;;;6.54;82.59;101496.46;105048;1257;60344;-58
2024/02/15 02:33:02;;;;;;;45.70;27.30;;;;;;;6.53;82.48;101502.50;104990;1256;138877;-59
2024/02/15 02:35:29;;;;;;;43.60;26.60;;;;;;;6.51;82.64;101501.34;105253;1256;73518;-58
2024/02/15 02:37:56;;;;;;;45.10;27.80;;;;;;;6.49;82.75;101496.89;104605;1257;66953;-58
2024/02/15 02:40:23;;;;;;;44.60;27.10;;;;;;;6.51;82.92;101489.48;104360;1257;138391;-59
2024/02/15 02:42:52;;;;;;;46.30;27.40;;;;;;;6.53;83.00;101488.40;105164;1256;60923;-67
2024/02/15 02:45:22;;;;;;;48.70;26.70;;;;;;;6.55;83.11;101488.83;105343;1257;138491;-65
2024/02/15 02:47:49;;;;;;;43.00;26.60;;;;;;;6.56;83.09;101486.30;104907;1261;74567;-66
2024/02/15 02:50:16;;;;;;;41.50;26.40;;;;;;;6.55;83.10;101487.77;104961;1259;65732;-65
2024/02/15 02:52:44;;;;;;;48.00;26.40;;;;;;;6.54;83.12;101483.91;104875;1259;138671;-64
2024/02/15 02:55:11;;;;;;;44.50;26.20;;;;;;;6.54;83.22;101484.25;105184;1258;60556;-65
2024/02/15 02:57:38;;;;;;;41.90;25.80;;;;;;;6.56;83.38;101484.89;104952;1259;138446;-60
2024/02/15 03:00:12;;;;;;;41.60;26.40;;;;;;;6.58;83.40;101483.22;105335;1257;74529;-58
2024/02/15 03:02:39;;;;;;;43.30;25.90;;;;;;;6.59;83.47;101483.83;107886;1255;138853;-59
2024/02/15 03:05:08;;;;;;;42.30;27.30;;;;;;;6.61;83.53;101484.45;104673;1259;73425;-60
2024/02/15 03:07:36;;;;;;;42.20;26.00;;;;;;;6.62;83.52;101486.92;104987;1259;60456;-60
2024/02/15 03:10:04;;;;;;;42.50;27.30;;;;;;;6.62;83.53;101488.14;106002;1259;138405;-60
2024/02/15 03:12:31;;;;;;;42.90;27.70;;;;;;;6.65;83.65;101481.66;105347;1259;74242;-59
2024/02/15 03:14:58;;;;;;;43.80;27.70;;;;;;;6.67;83.66;101479.50;104968;1258;138478;-59
2024/02/15 03:17:24;;;;;;;43.00;27.40;;;;;;;6.68;83.67;101487.39;104403;1256;72170;-60
2024/02/15 03:19:53;;;;;;;41.10;27.30;;;;;;;6.70;83.76;101487.69;108398;1254;59868;-59
2024/02/15 03:22:20;;;;;;;46.50;28.10;;;;;;;6.71;83.70;101487.21;106409;1259;138709;-67
2024/02/15 03:24:48;;;;;;;40.90;27.20;;;;;;;6.72;83.81;101490.94;104631;1254;74411;-66
2024/02/15 03:27:15;;;;;;;51.30;27.20;;;;;;;6.75;83.82;101492.14;104922;1260;138887;-66
2024/02/15 03:29:42;;;;;;;46.20;27.40;;;;;;;6.77;83.80;101491.02;105004;1257;73850;-66
2024/02/15 03:32:10;;;;;;;49.60;28.30;;;;;;;6.78;83.85;101494.25;105340;1259;60488;-65
2024/02/15 03:34:39;;;;;;;47.40;27.20;;;;;;;6.80;83.91;101495.18;104942;1254;138355;-65
2024/02/15 03:37:09;;;;;;;42.50;26.60;;;;;;;6.79;83.72;101496.88;104907;1254;74414;-68
2024/02/15 03:39:37;;;;;;;43.80;26.60;;;;;;;6.78;83.83;101499.80;106412;1254;138474;-59
2024/02/15 03:42:04;;;;;;;54.70;28.40;;;;;;;6.79;83.85;101495.65;104718;1259;73209;-65
2024/02/15 03:44:31;;;;;;;48.00;29.20;;;;;;;6.78;83.81;101491.77;104588;1257;60368;-67
2024/02/15 03:46:58;;;;;;;47.40;28.60;;;;;;;6.75;83.80;101489.19;104784;1257;138291;-65
2024/02/15 03:49:26;;;;;;;49.20;27.80;;;;;;;6.77;83.93;101488.75;106670;1256;74568;-65
2024/02/15 03:51:54;;;;;;;44.90;28.90;;;;;;;6.77;83.92;101489.44;105310;1258;138188;-64
2024/02/15 03:54:23;;;;;;;48.90;28.80;;;;;;;6.78;84.08;101489.35;104998;1256;73234;-65
2024/02/15 03:56:52;;;;;;;46.10;29.10;;;;;;;6.79;84.06;101487.98;104922;1258;138407;-63
2024/02/15 03:59:26;;;;;;;46.20;29.40;;;;;;;6.79;84.03;101488.33;105094;1260;60433;-64
2024/02/15 04:01:53;;;;;;;47.20;27.40;;;;;;;6.78;84.00;101485.85;105514;1255;72282;-65
2024/02/15 04:04:23;;;;;;;50.10;30.20;;;;;;;6.78;84.07;101484.98;105231;1259;138286;-66
2024/02/15 04:06:51;;;;;;;47.40;29.60;;;;;;;6.79;84.31;101480.16;104821;1259;72037;-65
2024/02/15 04:09:20;;;;;;;51.90;29.70;;;;;;;6.81;84.31;101477.63;106772;1256;139258;-58
2024/02/15 04:11:52;;;;;;;56.40;31.20;;;;;;;6.81;84.22;101476.08;104618;1254;60732;-65
2024/02/15 04:14:19;;;;;;;48.40;29.70;;;;;;;6.81;84.14;101477.80;104395;1259;73177;-65
2024/02/15 04:16:46;;;;;;;49.90;30.20;;;;;;;6.80;84.18;101479.52;104610;1258;138654;-65
2024/02/15 04:19:13;;;;;;;47.00;29.20;;;;;;;6.79;84.21;101481.02;104755;1259;72199;-65
2024/02/15 04:21:40;;;;;;;47.40;29.40;;;;;;;6.80;84.34;101482.30;108698;1254;138397;-65
2024/02/15 04:24:07;;;;;;;49.50;29.40;;;;;;;6.81;84.26;101482.20;109066;1254;59097;-65
2024/02/15 04:26:33;;;;;;;53.70;33.80;;;;;;;6.83;84.38;101478.42;106899;1254;72075;-66
2024/02/15 04:29:00;;;;;;;55.40;33.70;;;;;;;6.83;84.30;101475.63;104943;1254;138320;-58
2024/02/15 04:31:27;;;;;;;57.30;34.10;;;;;;;6.85;84.36;101468.55;105011;1254;73143;-58
2024/02/15 04:33:55;;;;;;;57.20;34.60;;;;;;;6.86;84.46;101467.73;104633;1254;138284;-59
2024/02/15 04:36:25;;;;;;;58.80;32.90;;;;;;;6.86;84.53;101467.77;105541;1256;60508;-60
2024/02/15 04:38:52;;;;;;;53.40;31.70;;;;;;;6.87;84.57;101469.73;104649;1256;138309;-59
2024/02/15 04:41:19;;;;;;;53.70;30.90;;;;;;;6.86;84.58;101468.30;104603;1259;67305;-60
2024/02/15 04:43:46;;;;;;;51.90;30.20;;;;;;;6.87;84.69;101469.88;104944;1254;72691;-60
2024/02/15 04:46:14;;;;;;;51.50;31.80;;;;;;;6.85;84.53;101474.69;104854;1259;139140;-66
2024/02/15 04:48:42;;;;;;;47.80;30.50;;;;;;;6.86;84.83;101469.31;104771;1259;60394;-66
2024/02/15 04:51:12;;;;;;;53.20;28.80;;;;;;;6.87;84.84;101473.59;108428;1254;138821;-65
2024/02/15 04:53:41;;;;;;;46.80;29.90;;;;;;;6.87;84.86;101476.55;108599;1254;68090;-65
2024/02/15 04:56:11;;;;;;;47.20;29.90;;;;;;;6.88;84.79;101481.45;105749;1256;73978;-66
2024/02/15 04:58:45;;;;;;;50.20;30.00;;;;;;;6.87;84.83;101478.79;104958;1254;138324;-66
2024/02/15 05:01:15;;;;;;;168.90;94.50;;;;;;;6.89;84.96;101479.27;109106;1254;58494;-65
2024/02/15 05:03:45;;;;;;;169.80;96.80;;;;;;;6.91;84.92;101475.87;107217;1254;139064;-65
2024/02/15 05:06:15;;;;;;;69.90;47.00;;;;;;;6.88;84.81;101477.43;104573;1257;65783;-64
2024/02/15 05:08:44;;;;;;;61.80;36.10;;;;;;;6.85;84.85;101478.16;104548;1256;138896;-63
2024/02/15 05:11:17;;;;;;;59.70;34.30;;;;;;;6.84;85.02;101476.56;104707;1264;60543;-66
2024/02/15 05:13:50;;;;;;;49.10;29.70;;;;;;;6.87;85.15;101474.95;105139;1258;60926;-65
2024/02/15 05:16:17;;;;;;;50.50;29.80;;;;;;;6.89;85.22;101474.02;107132;1254;138311;-65
2024/02/15 05:18:45;;;;;;;46.70;28.50;;;;;;;6.90;85.22;101476.34;106571;1254;66961;-59
2024/02/15 05:21:13;;;;;;;46.70;28.30;;;;;;;6.90;85.33;101474.57;108460;1254;138818;-59
2024/02/15 05:23:39;;;;;;;44.40;27.40;;;;;;;6.92;85.35;101475.05;104793;1254;60476;-60
2024/02/15 05:26:07;;;;;;;46.90;28.20;;;;;;;6.94;85.38;101475.86;108527;1254;59756;-59
2024/02/15 05:28:34;;;;;;;42.70;25.80;;;;;;;6.96;85.31;101480.30;105378;1258;139328;-58
2024/02/15 05:31:17;;;;;;;47.40;26.90;;;;;;;6.98;85.42;101481.29;105074;1259;66160;-60
2024/02/15 05:33:44;;;;;;;44.50;26.50;;;;;;;6.99;85.39;101480.30;104815;1257;138339;-66
2024/02/15 05:36:11;;;;;;;48.00;27.60;;;;;;;6.98;85.33;101481.83;105076;1259;60399;-65
2024/02/15 05:38:39;;;;;;;49.50;27.10;;;;;;;6.96;85.26;101482.23;107527;1256;60582;-64
2024/02/15 05:41:07;;;;;;;46.20;28.40;;;;;;;6.95;85.46;101481.33;105654;1259;74363;-67
2024/02/15 05:43:36;;;;;;;46.90;30.00;;;;;;;6.95;85.47;101483.43;107251;1256;67046;-67
2024/02/15 05:46:03;;;;;;;46.10;31.10;;;;;;;6.94;85.45;101481.25;104876;1257;139001;-67
2024/02/15 05:48:30;;;;;;;51.60;32.90;;;;;;;6.92;85.52;101487.42;104945;1259;60616;-67
2024/02/15 05:50:58;;;;;;;52.80;30.20;;;;;;;6.89;85.58;101489.06;104743;1261;138746;-66
2024/02/15 05:53:25;;;;;;;48.20;29.00;;;;;;;6.90;85.72;101489.45;105014;1256;74656;-67
2024/02/15 05:55:52;;;;;;;46.10;29.50;;;;;;;6.93;85.87;101486.78;105091;1256;65253;-65
2024/02/15 05:58:19;;;;;;;41.20;27.20;;;;;;;6.96;85.96;101486.42;104767;1262;138368;-64
2024/02/15 06:00:49;;;;;;;48.90;27.30;;;;;;;6.98;85.97;101489.85;104896;1260;60584;-64
2024/02/15 06:03:16;;;;;;;49.70;28.20;;;;;;;7.01;86.00;101491.02;105338;1260;139068;-63
2024/02/15 06:05:44;;;;;;;49.60;27.10;;;;;;;7.02;86.08;101493.54;105000;1260;74721;-63
2024/02/15 06:08:14;;;;;;;44.10;26.10;;;;;;;7.04;86.06;101496.75;105173;1257;66549;-63
2024/02/15 06:10:41;;;;;;;42.30;25.90;;;;;;;7.05;86.12;101499.45;105044;1259;138728;-64
2024/02/15 06:13:11;;;;;;;41.40;25.50;;;;;;;7.06;86.14;101502.13;105081;1259;60595;-63
2024/02/15 06:15:37;;;;;;;46.50;27.30;;;;;;;7.08;86.16;101503.59;105080;1256;138439;-64
2024/02/15 06:18:08;;;;;;;47.10;27.90;;;;;;;7.09;86.14;101498.42;105291;1256;74323;-63
2024/02/15 06:20:39;;;;;;;43.20;26.90;;;;;;;7.09;86.19;101501.93;105117;1257;67238;-64
2024/02/15 06:23:07;;;;;;;51.10;29.00;;;;;;;7.11;86.37;101503.78;105088;1259;71411;-64
2024/02/15 06:25:35;;;;;;;55.50;32.50;;;;;;;7.14;86.38;101508.81;106890;1256;60555;-64
2024/02/15 06:28:12;;;;;;;47.50;30.40;;;;;;;7.16;86.48;101509.98;105167;1257;138463;-65
2024/02/15 06:41:41;;;;;;;53.10;33.00;;;;;;;7.23;86.46;101511.34;105018;1258;60492;-65
2024/02/15 06:44:08;;;;;;;46.50;29.80;;;;;;;7.25;86.58;101508.50;105109;1256;72041;-65
2024/02/15 06:46:35;;;;;;;47.40;29.40;;;;;;;7.29;86.66;101511.83;104940;1259;138318;-65
2024/02/15 06:49:03;;;;;;;48.30;30.40;;;;;;;7.33;86.65;101516.05;105014;1259;72811;-65
2024/02/15 06:51:30;;;;;;;44.80;28.30;;;;;;;7.35;86.39;101514.91;104487;1254;138892;-65
2024/02/15 06:53:57;;;;;;;45.50;28.50;;;;;;;7.35;86.54;101512.15;104801;1258;60705;-59
2024/02/15 06:56:24;;;;;;;46.00;28.70;;;;;;;7.38;86.67;101515.80;104927;1259;73995;-59
2024/02/15 06:58:51;;;;;;;44.20;28.50;;;;;;;7.45;86.79;101514.71;104887;1259;138566;-58
2024/02/15 07:01:18;;;;;;;44.60;29.20;;;;;;;7.48;86.68;101514.16;105111;1255;73613;-59
2024/02/15 07:03:45;;;;;;;49.10;29.50;;;;;;;7.48;86.63;101505.98;105142;1258;138338;-58
2024/02/15 07:06:15;;;;;;;50.90;33.10;;;;;;;7.53;86.59;101507.11;105087;1254;60450;-59
2024/02/15 07:08:41;;;;;;;47.10;29.70;;;;;;;7.57;86.72;101513.25;104901;1254;139451;-59
2024/02/15 07:11:09;;;;;;;46.50;27.80;;;;;;;7.63;86.80;101510.18;104991;1254;65485;-60
2024/02/15 07:13:38;;;;;;;45.30;28.00;;;;;;;7.69;86.76;101509.62;105248;1254;74138;-58
2024/02/15 07:16:08;;;;;;;43.90;27.60;;;;;;;7.69;86.68;101508.75;105089;1254;138938;-59
2024/02/15 07:18:35;;;;;;;40.60;25.80;;;;;;;7.76;86.74;101516.61;105069;1258;60457;-60
2024/02/15 07:21:03;;;;;;;41.80;25.40;;;;;;;7.85;86.85;101519.64;104885;1256;138561;-60
2024/02/15 07:23:30;;;;;;;41.80;26.00;;;;;;;7.91;86.81;101522.95;105131;1254;65227;-59
2024/02/15 07:25:57;;;;;;;44.10;27.10;;;;;;;8.00;86.83;101525.41;105120;1259;73252;-59
2024/02/15 07:28:23;;;;;;;41.80;24.90;;;;;;;8.07;86.74;101526.44;105091;1258;138976;-59
2024/02/15 07:30:54;;;;;;;40.00;25.80;;;;;;;8.10;86.62;101528.69;105099;1259;61427;-58
2024/02/15 07:33:22;;;;;;;39.50;25.10;;;;;;;8.14;86.57;101528.73;109104;1254;139230;-59
2024/02/15 07:35:53;;;;;;;39.30;24.50;;;;;;;8.18;86.56;101523.69;106122;1256;66312;-59
2024/02/15 07:38:22;;;;;;;37.30;23.30;;;;;;;8.23;86.41;101526.70;105074;1259;72307;-60
2024/02/15 07:40:49;;;;;;;37.10;22.90;;;;;;;8.28;86.55;101527.44;106969;1256;138218;-59
2024/02/15 07:43:16;;;;;;;31.20;21.90;;;;;;;8.31;86.34;101525.00;109103;1254;59997;-59
2024/02/15 07:45:43;;;;;;;34.20;22.30;;;;;;;8.36;86.40;101527.98;106440;1254;139156;-58
2024/02/15 07:48:10;;;;;;;33.20;21.40;;;;;;;8.40;86.31;101530.80;105178;1257;67209;-60
2024/02/15 07:50:40;;;;;;;32.80;22.10;;;;;;;8.45;86.38;101531.27;105228;1257;73556;-60
2024/02/15 07:53:08;;;;;;;30.00;20.20;;;;;;;8.51;86.40;101527.86;109281;1254;58486;-58
2024/02/15 07:55:34;;;;;;;32.10;20.30;;;;;;;8.55;86.39;101530.50;105949;1256;60785;-59
2024/02/15 07:58:01;;;;;;;30.90;20.60;;;;;;;8.63;86.41;101533.09;104972;1258;138686;-60
2024/02/15 08:00:29;;;;;;;32.00;21.10;;;;;;;8.68;86.22;101527.38;105186;1255;67252;-60
2024/02/15 08:02:57;;;;;;;30.50;20.10;;;;;;;8.72;86.18;101532.82;105056;1255;138332;-58
2024/02/15 08:05:24;;;;;;;29.40;19.40;;;;;;;8.75;86.18;101532.27;104962;1259;60508;-60
2024/02/15 08:07:51;;;;;;;28.90;18.90;;;;;;;8.79;86.14;101528.23;105056;1256;60860;-60
2024/02/15 08:10:17;;;;;;;34.30;22.10;;;;;;;8.83;86.09;101527.52;104998;1259;138696;-59
2024/02/15 08:12:45;;;;;;;29.70;21.00;;;;;;;8.86;86.06;101527.85;105040;1259;67068;-58
2024/02/15 08:15:12;;;;;;;32.10;21.60;;;;;;;8.90;85.99;101526.98;108117;1254;138918;-58
2024/02/15 08:17:40;;;;;;;30.40;20.40;;;;;;;8.93;85.98;101529.04;105201;1257;60564;-58
2024/02/15 08:20:08;;;;;;;28.90;18.90;;;;;;;8.99;85.98;101527.16;109267;1254;58206;-58
2024/02/15 08:22:38;;;;;;;25.60;18.50;;;;;;;9.02;85.94;101528.56;105308;1257;138418;-62
2024/02/15 08:25:06;;;;;;;24.10;17.40;;;;;;;9.03;85.78;101529.99;105244;1258;65939;-59
2024/02/15 08:27:34;;;;;;;25.80;18.10;;;;;;;9.08;85.86;101526.70;105024;1256;138253;-61
2024/02/15 08:30:03;;;;;;;24.60;17.90;;;;;;;9.18;86.09;101523.98;108037;1255;60533;-58
2024/02/15 08:32:29;;;;;;;23.90;17.00;;;;;;;9.30;86.10;101525.56;105122;1258;60907;-58
2024/02/15 08:34:56;;;;;;;26.30;18.20;;;;;;;9.48;86.26;101524.20;105025;1257;138305;-58
2024/02/15 08:37:23;;;;;;;28.90;19.00;;;;;;;9.66;86.32;101522.66;105131;1259;64995;-61
2024/02/15 08:39:50;;;;;;;27.60;18.20;;;;;;;9.84;86.27;101524.27;105064;1257;138269;-59
2024/02/15 08:42:22;;;;;;;24.70;17.50;;;;;;;9.95;85.87;101525.06;105161;1259;60569;-62
2024/02/15 08:44:48;;;;;;;24.50;17.40;;;;;;;10.05;85.82;101526.84;105074;1257;138983;-60
2024/02/15 08:47:15;;;;;;;24.80;17.90;;;;;;;10.12;85.64;101523.63;105150;1258;75100;-60
2024/02/15 08:49:42;;;;;;;25.80;16.90;;;;;;;10.12;85.15;101523.64;105327;1259;66582;-59
2024/02/15 08:52:09;;;;;;;31.60;24.70;;;;;;;10.08;85.04;101525.41;105179;1255;137804;-59
2024/02/15 08:54:38;;;;;;;26.10;18.90;;;;;;;10.04;84.91;101526.46;105154;1258;60601;-59
2024/02/15 08:57:06;;;;;;;25.00;17.80;;;;;;;10.02;84.91;101525.88;108846;1254;137742;-58
2024/02/15 08:59:33;;;;;;;26.30;18.40;;;;;;;10.08;85.16;101525.41;105071;1255;73927;-58
2024/02/15 09:02:00;;;;;;;25.40;16.70;;;;;;;10.17;85.22;101523.28;105221;1258;67575;-59
2024/02/15 09:04:27;;;;;;;27.90;17.20;;;;;;;10.25;85.13;101526.94;109110;1255;138449;-59
2024/02/15 09:06:53;;;;;;;24.10;17.10;;;;;;;10.31;85.00;101527.21;106223;1256;60453;-58
2024/02/15 09:09:20;;;;;;;25.00;17.40;;;;;;;10.44;85.09;101525.08;105061;1256;139384;-59
2024/02/15 09:11:47;;;;;;;25.20;16.80;;;;;;;10.59;85.24;101525.10;105182;1259;74338;-60
2024/02/15 09:14:14;;;;;;;27.50;18.00;;;;;;;10.68;84.81;101527.20;105105;1254;66695;-58
2024/02/15 09:16:40;;;;;;;26.20;17.90;;;;;;;10.70;84.60;101527.81;105013;1259;138708;-60
2024/02/15 09:19:07;;;;;;;23.90;17.90;;;;;;;10.74;84.49;101535.11;105172;1257;60527;-58
2024/02/15 09:21:34;;;;;;;27.90;19.20;;;;;;;10.77;84.45;101536.64;105004;1259;138797;-59
2024/02/15 09:24:00;;;;;;;25.00;18.20;;;;;;;10.75;84.27;101537.63;105156;1259;74490;-59
2024/02/15 09:26:30;;;;;;;29.70;20.20;;;;;;;10.77;84.24;101539.45;104923;1259;224816;-62
2024/02/15 09:28:56;;;;;;;30.60;21.30;;;;;;;10.79;84.19;101540.41;105038;1256;139498;-60
2024/02/15 09:31:24;;;;;;;30.20;20.00;;;;;;;10.80;84.04;101540.96;105135;1259;60368;-59
2024/02/15 09:33:51;;;;;;;29.70;19.20;;;;;;;10.74;83.72;101540.58;105074;1259;137698;-60
2024/02/15 09:36:18;;;;;;;54.60;37.50;;;;;;;10.64;83.73;101538.30;105109;1257;74440;-60
2024/02/15 09:38:46;;;;;;;44.00;30.10;;;;;;;10.58;83.82;101536.27;104969;1259;138011;-59
2024/02/15 09:41:13;;;;;;;41.20;26.40;;;;;;;10.56;84.03;101535.00;105233;1256;74161;-59
2024/02/15 09:43:40;;;;;;;49.50;35.60;;;;;;;10.54;83.96;101537.55;105190;1259;60454;-58
2024/02/15 09:46:06;;;;;;;35.30;24.50;;;;;;;10.58;84.17;101536.82;105007;1258;138476;-58
2024/02/15 09:48:33;;;;;;;31.00;22.10;;;;;;;10.63;84.29;101533.67;105069;1256;73257;-59
2024/02/15 09:51:01;;;;;;;30.30;20.80;;;;;;;10.70;84.36;101537.80;104761;1262;138794;-60
2024/02/15 09:53:28;;;;;;;33.10;21.20;;;;;;;10.79;84.35;101536.90;105121;1258;72635;-60
2024/02/15 09:55:55;;;;;;;27.50;18.80;;;;;;;10.87;84.32;101535.60;106210;1255;60594;-60
2024/02/15 09:58:25;;;;;;;25.70;18.90;;;;;;;10.95;84.20;101537.29;105003;1262;139543;-60
2024/02/15 10:00:51;;;;;;;29.90;21.10;;;;;;;10.96;83.79;101540.14;105178;1254;74152;-59
2024/02/15 10:03:20;;;;;;;27.30;19.80;;;;;;;10.95;83.77;101543.25;104987;1257;139065;-59
2024/02/15 10:05:49;;;;;;;30.60;22.10;;;;;;;10.92;83.64;101549.81;105224;1254;73709;-58
2024/02/15 10:08:17;;;;;;;27.50;21.10;;;;;;;10.88;83.58;101549.70;105134;1257;60492;-59
2024/02/15 10:10:44;;;;;;;28.10;21.10;;;;;;;10.86;83.52;101546.62;105000;1259;138901;-58
2024/02/15 10:13:16;;;;;;;28.10;21.10;;;;;;;10.83;83.62;101547.95;105557;1259;74596;-59
2024/02/15 10:15:44;;;;;;;30.20;19.80;;;;;;;10.84;83.60;101545.15;106071;1259;137988;-59
2024/02/15 10:18:12;;;;;;;31.20;20.80;;;;;;;10.84;83.66;101544.09;106828;1256;72913;-59
2024/02/15 10:20:40;;;;;;;28.50;20.30;;;;;;;10.86;83.65;101544.88;105181;1257;60466;-59
2024/02/15 10:23:08;;;;;;;30.00;21.70;;;;;;;10.81;83.53;101542.05;109292;1254;58296;-59
2024/02/15 10:25:35;;;;;;;29.60;20.40;;;;;;;10.83;83.86;101544.58;109151;1254;72474;-59
2024/02/15 10:28:22;;;;;;;30.00;20.50;;;;;;;10.82;83.63;101546.48;105871;1258;139312;-60
2024/02/15 10:30:52;;;;;;;28.30;20.20;;;;;;;10.80;83.64;101546.21;105071;1256;73878;-60
2024/02/15 10:33:23;;;;;;;27.60;20.40;;;;;;;10.79;83.65;101549.73;105552;1258;139743;-58
2024/02/15 10:35:50;;;;;;;27.20;20.70;;;;;;;10.79;83.57;101547.08;107084;1258;60379;-59
2024/02/15 10:38:17;;;;;;;27.80;20.40;;;;;;;10.74;83.36;101548.46;104907;1255;74240;-59
2024/02/15 10:40:46;;;;;;;29.30;21.60;;;;;;;10.68;83.40;101544.73;104987;1258;138992;-58
2024/02/15 10:43:13;;;;;;;27.30;21.20;;;;;;;10.61;83.50;101538.86;105232;1258;73108;-59
2024/02/15 10:45:40;;;;;;;31.70;22.30;;;;;;;10.58;83.50;101535.92;107936;1256;139081;-58
2024/02/15 10:48:10;;;;;;;28.10;21.00;;;;;;;10.60;83.78;101536.54;109239;1254;60026;-59
2024/02/15 10:50:39;;;;;;;29.60;21.20;;;;;;;10.64;83.83;101533.39;105057;1258;74954;-58
2024/02/15 10:53:18;;;;;;;30.20;22.10;;;;;;;10.74;84.03;101533.20;105129;1258;65541;-60
2024/02/15 10:55:53;;;;;;;28.50;21.30;;;;;;;10.86;84.10;101534.52;107312;1259;73354;-58
2024/02/15 10:58:20;;;;;;;32.50;22.00;;;;;;;10.94;83.96;101532.67;107897;1255;138633;-59
2024/02/15 11:00:47;;;;;;;30.90;22.60;;;;;;;10.96;83.72;101537.30;106264;1254;60497;-60
2024/02/15 11:03:20;;;;;;;29.90;22.40;;;;;;;10.97;83.71;101535.96;105009;1259;139459;-59
2024/02/15 11:05:47;;;;;;;32.50;24.20;;;;;;;11.02;83.85;101532.83;105155;1259;67031;-60
2024/02/15 11:08:13;;;;;;;32.40;24.00;;;;;;;11.08;83.84;101530.39;104957;1262;73347;-59
2024/02/15 11:10:43;;;;;;;32.50;23.30;;;;;;;11.07;83.49;101529.11;104997;1259;139152;-59
2024/02/15 11:13:10;;;;;;;35.30;25.30;;;;;;;11.04;83.38;101527.06;105108;1258;60316;-58
2024/02/15 11:15:41;;;;;;;38.40;26.60;;;;;;;11.06;83.54;101526.45;104999;1259;138703;-59
2024/02/15 11:18:08;;;;;;;37.50;28.00;;;;;;;11.10;83.70;101523.93;105862;1256;66801;-61